Time;durP1;ratioP1;P1;durP2;ratioP2;P2;SDS_P1;SDS_P2;PMS_P1;PMS_P2;Temp;Humidity;BMP_temperature;BMP_pressure;BME280_temperature;BME280_humidity;BME280_pressure;Samples;Min_cycle;Max_cycle;Signal;HPM_P1;HPM_P2
2021/09/26 00:00:25;;;;;;;8.63;7.50;;;14.20;99.90;;;;;;5042623;28;20644;-79
2021/09/26 00:02:54;;;;;;;12.10;7.00;;;14.30;99.90;;;;;;5042982;28;20182;-78
2021/09/26 00:05:20;;;;;;;7.10;6.60;;;14.30;99.90;;;;;;5040515;28;20178;-78
2021/09/26 00:07:45;;;;;;;6.97;6.40;;;14.30;99.90;;;;;;5042613;28;20524;-79
2021/09/26 00:10:13;;;;;;;7.83;7.03;;;14.30;99.90;;;;;;5042983;28;20186;-78
2021/09/26 00:12:39;;;;;;;7.70;7.00;;;14.30;99.90;;;;;;5041984;28;20269;-77
2021/09/26 00:15:09;;;;;;;7.23;6.73;;;14.30;99.90;;;;;;5033898;28;20462;-78
2021/09/26 00:17:34;;;;;;;7.67;6.97;;;14.30;99.90;;;;;;5039486;28;20444;-77
2021/09/26 00:20:00;;;;;;;7.73;7.03;;;14.40;99.90;;;;;;5043284;28;20997;-78
2021/09/26 00:22:26;;;;;;;6.90;6.40;;;14.40;99.90;;;;;;5011980;28;20196;-77
2021/09/26 00:24:52;;;;;;;8.13;7.43;;;14.40;99.90;;;;;;5041343;28;20181;-78
2021/09/26 00:27:17;;;;;;;6.80;6.30;;;14.50;99.90;;;;;;5039967;28;20181;-77
2021/09/26 00:29:43;;;;;;;8.30;7.60;;;14.50;99.90;;;;;;5041422;28;20636;-77
2021/09/26 00:32:10;;;;;;;7.67;7.03;;;14.60;99.90;;;;;;5042509;28;20303;-77
2021/09/26 00:34:36;;;;;;;6.47;5.97;;;14.60;99.90;;;;;;5038965;28;20177;-77
2021/09/26 00:37:03;;;;;;;7.70;6.90;;;14.60;99.90;;;;;;5037262;28;20477;-77
2021/09/26 00:39:29;;;;;;;7.73;7.03;;;14.60;99.90;;;;;;5041245;28;20498;-78
2021/09/26 00:41:55;;;;;;;7.27;6.67;;;14.70;99.90;;;;;;5037465;28;20476;-77
2021/09/26 00:44:21;;;;;;;7.93;7.27;;;14.70;99.90;;;;;;5041331;28;20528;-77
2021/09/26 00:46:46;;;;;;;7.47;6.73;;;14.70;99.90;;;;;;5038468;28;20518;-77
2021/09/26 00:49:12;;;;;;;7.00;6.13;;;14.70;99.90;;;;;;5041025;28;20420;-76
2021/09/26 00:51:38;;;;;;;6.90;6.40;;;14.70;99.90;;;;;;5039883;28;20216;-78
2021/09/26 00:54:04;;;;;;;6.93;5.83;;;14.70;99.90;;;;;;5039841;28;20184;-78
2021/09/26 00:56:31;;;;;;;6.07;5.47;;;14.70;99.90;;;;;;5040060;28;20277;-77
2021/09/26 00:58:57;;;;;;;6.20;5.70;;;14.70;99.90;;;;;;5039916;28;20487;-78
2021/09/26 01:01:23;;;;;;;8.77;8.00;;;14.70;99.90;;;;;;5041764;28;20484;-78
2021/09/26 01:03:49;;;;;;;5.77;5.37;;;14.80;99.90;;;;;;5039316;28;20439;-78
2021/09/26 01:06:33;;;;;;;6.10;5.67;;;14.80;99.90;;;;;;5039907;28;20193;-78
2021/09/26 01:09:12;;;;;;;7.70;7.07;;;14.80;99.90;;;;;;5041920;28;20424;-78
2021/09/26 01:12:19;;;;;;;6.00;5.50;;;14.80;99.90;;;;;;5041892;28;20470;-78
2021/09/26 01:15:13;;;;;;;7.30;5.77;;;14.80;99.90;;;;;;4989768;28;20449;-79
2021/09/26 01:18:08;;;;;;;5.97;5.60;;;14.80;99.90;;;;;;4994283;28;20961;-79
2021/09/26 01:20:37;;;;;;;13.33;6.17;;;14.80;99.90;;;;;;5034882;28;20493;-79
2021/09/26 01:23:05;;;;;;;6.93;6.23;;;14.80;99.90;;;;;;5040096;28;20428;-78
2021/09/26 01:25:53;;;;;;;8.70;6.50;;;14.80;99.90;;;;;;5040660;28;20443;-78
2021/09/26 01:28:51;;;;;;;6.17;5.70;;;14.80;99.90;;;;;;5040677;28;20884;-78
2021/09/26 01:31:41;;;;;;;6.53;5.70;;;14.80;99.90;;;;;;5044752;28;20439;-78
2021/09/26 01:34:24;;;;;;;5.43;5.07;;;14.80;99.90;;;;;;5045571;28;20507;-78
2021/09/26 01:36:55;;;;;;;6.27;5.80;;;14.90;99.90;;;;;;5044080;28;20446;-78
2021/09/26 01:39:26;;;;;;;5.77;5.20;;;14.90;99.90;;;;;;5026651;28;20456;-78
2021/09/26 01:42:30;;;;;;;6.07;5.43;;;14.90;99.90;;;;;;5027995;28;20438;-78
2021/09/26 01:45:09;;;;;;;5.47;5.07;;;14.90;99.90;;;;;;4967794;28;20461;-78
2021/09/26 01:47:42;;;;;;;5.00;4.60;;;14.90;99.90;;;;;;5038775;28;20425;-77
2021/09/26 01:50:10;;;;;;;5.63;5.13;;;14.90;99.90;;;;;;5045094;28;20460;-77
2021/09/26 01:52:39;;;;;;;6.13;5.00;;;14.90;99.90;;;;;;5043650;28;20424;-77
2021/09/26 01:55:07;;;;;;;5.67;5.17;;;14.90;99.90;;;;;;5045502;28;20432;-77
2021/09/26 01:57:34;;;;;;;5.87;5.27;;;15.00;99.90;;;;;;5042952;28;20452;-78
2021/09/26 02:00:03;;;;;;;5.00;4.50;;;15.00;99.90;;;;;;5046203;28;20754;-78
2021/09/26 02:02:29;;;;;;;7.70;6.50;;;15.00;99.90;;;;;;5043399;28;20427;-78
2021/09/26 02:04:59;;;;;;;6.37;4.93;;;15.00;99.90;;;;;;5039353;28;20913;-78
2021/09/26 02:07:31;;;;;;;5.53;5.00;;;15.00;99.90;;;;;;5044945;28;20438;-78
2021/09/26 02:09:58;;;;;;;4.87;4.57;;;15.00;99.90;;;;;;5045844;28;20408;-78
2021/09/26 02:12:26;;;;;;;4.80;4.40;;;15.10;99.90;;;;;;5043168;28;20435;-78
2021/09/26 02:14:53;;;;;;;5.90;5.37;;;15.10;99.90;;;;;;5044716;28;20439;-78
2021/09/26 02:17:20;;;;;;;5.80;5.30;;;15.10;99.90;;;;;;5042724;28;20439;-78
2021/09/26 02:19:47;;;;;;;5.47;5.00;;;15.10;99.90;;;;;;5044798;28;20909;-79
2021/09/26 02:22:14;;;;;;;5.70;5.20;;;15.10;99.90;;;;;;5044266;28;20436;-79
2021/09/26 02:24:41;;;;;;;5.93;5.53;;;15.10;99.90;;;;;;5027130;28;20423;-78
2021/09/26 02:27:07;;;;;;;5.30;4.90;;;15.10;99.90;;;;;;5042721;28;20523;-79
2021/09/26 02:29:33;;;;;;;10.33;5.93;;;15.10;99.90;;;;;;5046274;28;20812;-79
2021/09/26 02:31:59;;;;;;;6.10;5.60;;;15.10;99.90;;;;;;5044314;28;20231;-79
2021/09/26 02:34:25;;;;;;;5.73;5.33;;;15.10;99.90;;;;;;5045593;28;20428;-78
2021/09/26 02:36:51;;;;;;;5.43;5.03;;;15.10;99.90;;;;;;5044126;28;20189;-78
2021/09/26 02:39:18;;;;;;;5.80;5.20;;;15.10;99.90;;;;;;5045154;28;20277;-78
2021/09/26 02:42:26;;;;;;;5.70;5.20;;;15.20;99.90;;;;;;5042527;28;20551;-79
2021/09/26 02:45:22;;;;;;;6.50;6.00;;;15.20;99.90;;;;;;5035656;28;20440;-78
2021/09/26 02:48:00;;;;;;;6.30;5.73;;;15.20;99.90;;;;;;5013661;28;21394;-79
2021/09/26 02:50:26;;;;;;;8.23;6.80;;;15.20;99.90;;;;;;5042897;28;20890;-79
2021/09/26 02:52:54;;;;;;;6.37;5.90;;;15.20;99.90;;;;;;5044053;28;20917;-79
2021/09/26 02:55:20;;;;;;;7.03;6.43;;;15.20;99.90;;;;;;5044568;28;20520;-78
2021/09/26 02:57:46;;;;;;;7.13;5.90;;;15.20;99.90;;;;;;5043198;28;20432;-79
2021/09/26 03:00:12;;;;;;;7.40;6.70;;;15.30;99.90;;;;;;5043431;28;20427;-78
2021/09/26 03:02:40;;;;;;;9.60;7.10;;;15.30;99.90;;;;;;5043490;28;20868;-78
2021/09/26 03:05:08;;;;;;;8.43;7.67;;;15.30;99.90;;;;;;5043557;28;20424;-78
2021/09/26 03:07:34;;;;;;;7.90;7.13;;;15.30;99.90;;;;;;5042711;28;20515;-78
2021/09/26 03:10:00;;;;;;;7.97;7.13;;;15.30;99.90;;;;;;5043607;28;20420;-78
2021/09/26 03:12:28;;;;;;;7.77;7.10;;;15.30;99.90;;;;;;5041437;28;20433;-78
2021/09/26 03:14:54;;;;;;;8.50;7.70;;;15.30;99.90;;;;;;5042734;28;20503;-78
2021/09/26 03:17:20;;;;;;;9.97;8.83;;;15.30;99.90;;;;;;5041195;28;20943;-78
2021/09/26 03:19:46;;;;;;;15.77;8.07;;;15.30;99.90;;;;;;5043653;28;20229;-78
2021/09/26 03:22:13;;;;;;;7.60;6.90;;;15.30;99.90;;;;;;5043233;28;20173;-78
2021/09/26 03:24:39;;;;;;;10.33;8.00;;;15.30;99.90;;;;;;5040641;28;20432;-78
2021/09/26 03:27:09;;;;;;;8.70;7.90;;;15.40;99.90;;;;;;5042075;28;20419;-78
2021/09/26 03:29:38;;;;;;;9.00;7.50;;;15.40;99.90;;;;;;5042644;28;20420;-78
2021/09/26 03:32:04;;;;;;;9.63;8.70;;;15.40;99.90;;;;;;5042866;28;20420;-78
2021/09/26 03:34:30;;;;;;;7.57;6.73;;;15.40;99.90;;;;;;5042988;28;20433;-78
2021/09/26 03:36:55;;;;;;;8.20;7.40;;;15.40;99.90;;;;;;5041832;28;20768;-78
2021/09/26 03:39:21;;;;;;;8.70;7.90;;;15.40;99.90;;;;;;5043082;28;20805;-78
2021/09/26 03:41:46;;;;;;;7.93;7.00;;;15.40;99.90;;;;;;5041572;28;20256;-78
2021/09/26 03:44:12;;;;;;;8.53;7.83;;;15.40;99.90;;;;;;5043600;28;20586;-78
2021/09/26 03:46:38;;;;;;;8.73;7.83;;;15.40;99.90;;;;;;5042592;28;20620;-79
2021/09/26 03:49:04;;;;;;;7.97;7.27;;;15.40;99.90;;;;;;5041656;28;20184;-78
2021/09/26 03:51:29;;;;;;;7.83;7.20;;;15.40;99.90;;;;;;5043040;28;20181;-78
2021/09/26 03:53:55;;;;;;;7.67;7.00;;;15.40;99.90;;;;;;5042535;28;20185;-78
2021/09/26 03:56:21;;;;;;;8.40;7.70;;;15.40;99.90;;;;;;5040439;28;20178;-78
2021/09/26 03:58:46;;;;;;;7.80;7.10;;;15.40;99.90;;;;;;5043745;28;20618;-78
2021/09/26 04:01:12;;;;;;;7.93;7.33;;;15.40;99.90;;;;;;5043562;28;20544;-78
2021/09/26 04:03:38;;;;;;;8.43;7.73;;;15.40;99.90;;;;;;5041888;28;20180;-78
2021/09/26 04:06:09;;;;;;;9.07;8.27;;;15.40;99.90;;;;;;5041076;28;20558;-78
2021/09/26 04:08:36;;;;;;;11.00;8.87;;;15.40;99.90;;;;;;5042016;28;20486;-78
2021/09/26 04:11:01;;;;;;;10.70;8.10;;;15.40;99.90;;;;;;5043845;28;20435;-79
2021/09/26 04:13:27;;;;;;;8.93;8.03;;;15.40;99.90;;;;;;5042632;28;20440;-78
2021/09/26 04:15:52;;;;;;;10.07;9.17;;;15.40;99.90;;;;;;5042318;28;20205;-78
2021/09/26 04:18:18;;;;;;;9.20;8.23;;;15.40;99.90;;;;;;5042751;28;20291;-78
2021/09/26 04:20:44;;;;;;;11.03;9.40;;;15.40;99.90;;;;;;5042736;28;20228;-78
2021/09/26 04:23:09;;;;;;;10.83;8.60;;;15.40;99.90;;;;;;5041601;28;20182;-78
2021/09/26 04:25:35;;;;;;;11.07;10.00;;;15.40;99.90;;;;;;5040454;28;20188;-78
2021/09/26 04:28:00;;;;;;;10.23;9.10;;;15.40;99.90;;;;;;5041048;28;20195;-78
2021/09/26 04:30:26;;;;;;;12.30;9.20;;;15.40;99.90;;;;;;5040744;28;20522;-78
2021/09/26 04:32:52;;;;;;;11.47;9.40;;;15.40;99.90;;;;;;5042171;28;20727;-78
2021/09/26 04:35:18;;;;;;;9.60;8.70;;;15.40;99.90;;;;;;5040918;28;20495;-78
2021/09/26 04:37:43;;;;;;;9.43;8.40;;;15.40;99.90;;;;;;5040957;28;20169;-78
2021/09/26 04:40:10;;;;;;;10.07;8.97;;;15.40;99.90;;;;;;5038687;28;20569;-78
2021/09/26 04:42:35;;;;;;;8.73;7.83;;;15.40;99.90;;;;;;5042353;28;20184;-78
2021/09/26 04:45:02;;;;;;;8.43;7.73;;;15.30;99.90;;;;;;5039928;28;20495;-78
2021/09/26 04:47:28;;;;;;;9.07;8.27;;;15.30;99.90;;;;;;5040458;28;20177;-78
2021/09/26 04:49:53;;;;;;;8.93;8.20;;;15.30;99.90;;;;;;5042919;28;20417;-78
2021/09/26 04:52:19;;;;;;;8.23;7.60;;;15.30;99.90;;;;;;5041186;28;20228;-78
2021/09/26 04:54:45;;;;;;;10.20;9.20;;;15.20;99.90;;;;;;5042385;28;20231;-78
2021/09/26 04:57:10;;;;;;;8.23;7.43;;;15.20;99.90;;;;;;5040497;28;20571;-78
2021/09/26 04:59:36;;;;;;;9.13;8.30;;;15.20;99.90;;;;;;5041936;28;20704;-78
2021/09/26 05:02:02;;;;;;;9.50;8.63;;;15.10;99.90;;;;;;5042071;28;20188;-78
2021/09/26 05:04:31;;;;;;;9.77;8.20;;;15.10;99.90;;;;;;5040105;28;20252;-78
2021/09/26 05:06:57;;;;;;;10.30;7.80;;;15.10;99.90;;;;;;5040052;28;20174;-78
2021/09/26 05:09:23;;;;;;;8.70;8.00;;;15.00;99.90;;;;;;5039687;28;20845;-78
2021/09/26 05:11:49;;;;;;;8.57;7.80;;;14.90;99.90;;;;;;5040707;28;20439;-78
2021/09/26 05:14:15;;;;;;;8.53;7.83;;;14.90;99.90;;;;;;5042905;28;20479;-78
2021/09/26 05:16:41;;;;;;;8.57;7.77;;;14.80;99.90;;;;;;5038678;28;20189;-78
2021/09/26 05:19:06;;;;;;;7.80;7.20;;;14.80;99.90;;;;;;5040024;28;20255;-78
2021/09/26 05:21:32;;;;;;;9.37;8.40;;;14.80;99.90;;;;;;5041781;28;20861;-78
2021/09/26 05:23:58;;;;;;;8.47;7.60;;;14.80;99.90;;;;;;5041792;28;20504;-77
2021/09/26 05:26:27;;;;;;;8.90;8.10;;;14.80;99.90;;;;;;5040297;28;20424;-78
2021/09/26 05:28:52;;;;;;;9.40;7.93;;;14.80;99.90;;;;;;5041657;28;20168;-78
2021/09/26 05:31:18;;;;;;;8.83;8.00;;;14.80;99.90;;;;;;5040422;28;20811;-78
2021/09/26 05:33:44;;;;;;;8.80;8.00;;;14.80;99.90;;;;;;5041532;28;20203;-78
2021/09/26 05:36:09;;;;;;;8.73;8.03;;;14.90;99.90;;;;;;5040038;28;20323;-78
2021/09/26 05:38:35;;;;;;;11.10;9.67;;;14.90;99.90;;;;;;5040954;28;20273;-77
2021/09/26 05:41:01;;;;;;;9.40;8.40;;;15.00;99.90;;;;;;5040708;28;20270;-77
2021/09/26 05:43:26;;;;;;;9.00;8.20;;;15.00;99.90;;;;;;5040321;28;20248;-78
2021/09/26 05:45:52;;;;;;;12.77;9.77;;;15.00;99.90;;;;;;5040573;28;20192;-77
2021/09/26 05:48:18;;;;;;;9.47;8.67;;;15.00;99.90;;;;;;5036916;28;20664;-77
2021/09/26 05:50:43;;;;;;;14.00;11.20;;;15.10;99.90;;;;;;5040185;28;20177;-77
2021/09/26 05:53:09;;;;;;;10.10;9.10;;;15.10;99.90;;;;;;5038676;28;20182;-77
2021/09/26 05:55:35;;;;;;;10.10;8.80;;;15.00;99.90;;;;;;5040220;28;20195;-77
2021/09/26 05:58:00;;;;;;;10.60;9.60;;;15.00;99.90;;;;;;5039788;28;20193;-77
2021/09/26 06:00:26;;;;;;;11.13;9.27;;;15.00;99.90;;;;;;5039960;28;20188;-77
2021/09/26 06:02:53;;;;;;;14.13;9.60;;;15.00;99.90;;;;;;5040254;28;20173;-77
2021/09/26 06:05:19;;;;;;;11.70;8.80;;;15.00;99.90;;;;;;5039202;28;20199;-77
2021/09/26 06:07:45;;;;;;;9.83;8.83;;;15.00;99.90;;;;;;5036302;28;20445;-76
2021/09/26 06:10:11;;;;;;;10.13;9.00;;;15.00;99.90;;;;;;5033497;28;20421;-77
2021/09/26 06:12:37;;;;;;;9.30;8.40;;;15.00;99.90;;;;;;5036496;28;20181;-77
2021/09/26 06:15:04;;;;;;;14.43;10.47;;;15.00;99.90;;;;;;5034168;28;20481;-77
2021/09/26 06:17:31;;;;;;;11.07;9.90;;;15.00;99.90;;;;;;5042390;28;20576;-77
2021/09/26 06:19:57;;;;;;;11.57;10.10;;;15.10;99.90;;;;;;5042894;28;20846;-77
2021/09/26 06:22:25;;;;;;;11.40;10.37;;;15.10;99.90;;;;;;5041188;28;20450;-77
2021/09/26 06:24:52;;;;;;;10.93;9.23;;;15.20;99.90;;;;;;5048818;28;20423;-77
2021/09/26 06:27:19;;;;;;;14.60;10.30;;;15.20;99.90;;;;;;5039579;28;20427;-76
2021/09/26 06:29:45;;;;;;;10.50;9.47;;;15.20;99.90;;;;;;5039503;28;20424;-76
2021/09/26 06:32:11;;;;;;;11.13;10.13;;;15.20;99.90;;;;;;5024998;28;22830;-76
2021/09/26 06:34:37;;;;;;;12.07;9.97;;;15.30;99.90;;;;;;5042522;28;20443;-76
2021/09/26 06:37:05;;;;;;;10.93;9.83;;;15.30;99.90;;;;;;5039689;28;20216;-76
2021/09/26 06:39:32;;;;;;;14.00;9.80;;;15.30;99.90;;;;;;5041450;28;20491;-76
2021/09/26 06:41:57;;;;;;;10.27;9.20;;;15.40;99.90;;;;;;5044690;28;20474;-77
2021/09/26 06:44:23;;;;;;;11.70;10.60;;;15.40;99.90;;;;;;5043015;28;20440;-77
2021/09/26 06:46:49;;;;;;;10.10;9.13;;;15.40;99.90;;;;;;5038994;28;20178;-75
2021/09/26 06:49:15;;;;;;;12.33;10.63;;;15.40;99.90;;;;;;5041356;28;20258;-78
2021/09/26 06:51:40;;;;;;;12.27;10.80;;;15.60;99.90;;;;;;5036999;28;20235;-79
2021/09/26 06:54:06;;;;;;;12.10;10.90;;;15.60;99.90;;;;;;5035942;28;20189;-79
2021/09/26 06:56:31;;;;;;;14.17;11.77;;;15.70;99.90;;;;;;5040672;28;20193;-78
2021/09/26 06:58:57;;;;;;;12.23;10.67;;;15.70;99.90;;;;;;5039179;28;20209;-79
2021/09/26 07:01:23;;;;;;;12.83;10.60;;;15.70;99.90;;;;;;5042134;28;20186;-78
2021/09/26 07:03:48;;;;;;;11.33;10.23;;;15.70;99.90;;;;;;5041888;28;20193;-79
2021/09/26 07:06:14;;;;;;;11.70;10.50;;;15.80;99.90;;;;;;5042485;28;20582;-78
2021/09/26 07:08:40;;;;;;;12.40;11.10;;;15.80;99.90;;;;;;5042705;28;20681;-79
2021/09/26 07:11:06;;;;;;;10.83;9.53;;;15.90;99.90;;;;;;5043708;28;20178;-78
2021/09/26 07:13:31;;;;;;;12.93;10.00;;;15.90;99.90;;;;;;5041024;28;20189;-78
2021/09/26 07:15:57;;;;;;;12.97;10.40;;;16.00;99.90;;;;;;5042576;28;20181;-78
2021/09/26 07:18:23;;;;;;;10.80;9.60;;;16.00;99.90;;;;;;5041049;28;20271;-79
2021/09/26 07:20:48;;;;;;;10.80;9.13;;;16.10;99.90;;;;;;5042066;28;20178;-78
2021/09/26 07:23:14;;;;;;;11.27;10.23;;;16.20;99.90;;;;;;5043084;28;20573;-79
2021/09/26 07:25:40;;;;;;;12.50;9.73;;;16.20;99.90;;;;;;5041626;28;20181;-79
2021/09/26 07:28:06;;;;;;;10.37;9.27;;;16.30;99.90;;;;;;5043630;28;20500;-79
2021/09/26 07:30:32;;;;;;;9.37;8.47;;;16.30;99.90;;;;;;5038201;28;20855;-78
2021/09/26 07:32:58;;;;;;;10.13;8.90;;;16.30;99.90;;;;;;5040392;28;20288;-78
2021/09/26 07:35:24;;;;;;;10.60;9.50;;;16.30;99.90;;;;;;5042321;28;20530;-78
2021/09/26 07:37:50;;;;;;;11.23;10.03;;;16.40;99.90;;;;;;5042990;28;20209;-78
2021/09/26 07:40:16;;;;;;;9.87;8.87;;;16.50;99.90;;;;;;5041691;28;20481;-78
2021/09/26 07:42:42;;;;;;;10.00;9.00;;;16.50;99.90;;;;;;5041330;28;20447;-78
2021/09/26 07:45:10;;;;;;;9.60;8.70;;;16.60;99.90;;;;;;5038681;28;20440;-78
2021/09/26 07:47:36;;;;;;;9.50;8.60;;;16.60;99.90;;;;;;5041336;28;20267;-78
2021/09/26 07:50:03;;;;;;;10.40;8.80;;;16.70;99.90;;;;;;5041312;28;20518;-78
2021/09/26 07:52:29;;;;;;;9.67;8.77;;;16.80;99.90;;;;;;5041779;28;20178;-78
2021/09/26 07:54:56;;;;;;;10.23;9.17;;;16.90;99.90;;;;;;5043565;28;20439;-78
2021/09/26 07:57:22;;;;;;;8.67;7.90;;;17.00;99.90;;;;;;5042545;28;20173;-80
2021/09/26 07:59:49;;;;;;;10.77;7.67;;;17.10;99.90;;;;;;5041995;28;20456;-78
2021/09/26 08:02:15;;;;;;;9.67;8.07;;;17.10;99.90;;;;;;5043008;28;20918;-78
2021/09/26 08:04:41;;;;;;;8.10;7.23;;;17.30;99.90;;;;;;5040602;28;20534;-78
2021/09/26 08:07:07;;;;;;;8.63;7.80;;;17.30;99.90;;;;;;5042879;28;20449;-77
2021/09/26 08:09:33;;;;;;;8.80;8.00;;;17.50;99.90;;;;;;5041769;28;20922;-77
2021/09/26 08:11:58;;;;;;;7.90;7.30;;;17.50;99.90;;;;;;5045040;28;20183;-79
2021/09/26 08:14:24;;;;;;;8.30;7.47;;;17.60;99.90;;;;;;5042480;28;20516;-78
2021/09/26 08:16:50;;;;;;;7.70;7.10;;;17.70;99.90;;;;;;5041924;28;20511;-78
2021/09/26 08:19:16;;;;;;;7.10;6.50;;;17.90;99.90;;;;;;5042005;28;20267;-78
2021/09/26 08:21:41;;;;;;;7.23;6.53;;;17.90;99.90;;;;;;5042515;28;20166;-78
2021/09/26 08:24:07;;;;;;;6.93;6.37;;;17.90;99.90;;;;;;5042425;28;20185;-78
2021/09/26 08:26:36;;;;;;;6.87;6.27;;;18.00;99.90;;;;;;5041162;28;20183;-78
2021/09/26 08:29:02;;;;;;;8.27;7.53;;;18.10;99.90;;;;;;5042811;28;20249;-78
2021/09/26 08:31:28;;;;;;;5.70;5.30;;;18.20;99.90;;;;;;5042682;28;20415;-78
2021/09/26 08:33:54;;;;;;;6.93;6.33;;;18.20;99.90;;;;;;5041488;28;20423;-78
2021/09/26 08:36:20;;;;;;;5.70;5.27;;;18.40;99.90;;;;;;5042050;28;20247;-78
2021/09/26 08:38:45;;;;;;;6.70;6.10;;;18.50;99.90;;;;;;5042574;28;20201;-78
2021/09/26 08:41:13;;;;;;;6.83;6.30;;;18.60;99.90;;;;;;5041854;28;20415;-78
2021/09/26 08:43:39;;;;;;;7.57;6.10;;;18.70;99.90;;;;;;5042563;28;20228;-78
2021/09/26 08:46:06;;;;;;;5.50;5.10;;;18.90;99.90;;;;;;5041470;28;20494;-78
2021/09/26 08:48:33;;;;;;;8.03;6.20;;;18.90;99.90;;;;;;5042850;28;20440;-78
2021/09/26 08:50:58;;;;;;;5.67;5.27;;;19.10;99.90;;;;;;5041865;28;20520;-78
2021/09/26 08:53:25;;;;;;;6.40;5.33;;;19.20;99.90;;;;;;5042355;28;20950;-78
2021/09/26 08:55:55;;;;;;;6.13;5.60;;;19.30;99.90;;;;;;5043420;28;20186;-78
2021/09/26 08:58:21;;;;;;;5.43;5.07;;;19.40;99.90;;;;;;5041444;28;20771;-78
2021/09/26 09:00:48;;;;;;;5.27;4.80;;;19.40;99.90;;;;;;5041670;28;20446;-78
2021/09/26 09:03:14;;;;;;;5.33;4.90;;;19.50;99.90;;;;;;5039984;28;20436;-78
2021/09/26 09:05:42;;;;;;;5.23;4.77;;;19.60;99.90;;;;;;5041579;28;20464;-78
2021/09/26 09:08:19;;;;;;;5.80;5.40;;;19.70;99.90;;;;;;5041544;28;20436;-78
2021/09/26 09:10:51;;;;;;;4.73;4.33;;;19.70;99.90;;;;;;5041818;28;20492;-78
2021/09/26 09:13:20;;;;;;;4.77;4.37;;;19.90;99.90;;;;;;5040470;28;20923;-78
2021/09/26 09:15:58;;;;;;;6.00;4.57;;;20.10;99.90;;;;;;5041616;28;20510;-78
2021/09/26 09:18:25;;;;;;;4.33;4.03;;;20.20;99.90;;;;;;5040915;28;20512;-78
2021/09/26 09:20:52;;;;;;;5.17;4.77;;;20.40;99.90;;;;;;5041903;28;20428;-78
2021/09/26 09:23:20;;;;;;;6.10;4.70;;;20.50;99.90;;;;;;5041716;28;20504;-78
2021/09/26 09:25:55;;;;;;;4.37;3.97;;;20.50;99.90;;;;;;5040787;28;20539;-78
2021/09/26 09:28:21;;;;;;;7.80;4.53;;;20.50;99.90;;;;;;5040007;28;20431;-78
2021/09/26 09:30:52;;;;;;;5.20;4.70;;;20.60;99.90;;;;;;5041514;28;20439;-77
2021/09/26 09:33:20;;;;;;;4.50;3.87;;;20.80;99.90;;;;;;5041209;28;20173;-78
2021/09/26 09:35:49;;;;;;;3.83;3.63;;;21.00;99.90;;;;;;5040533;28;20519;-77
2021/09/26 09:38:33;;;;;;;3.33;3.10;;;21.00;99.90;;;;;;5040285;28;20488;-77
2021/09/26 09:40:59;;;;;;;4.30;3.90;;;21.20;99.90;;;;;;5038649;28;20420;-77
2021/09/26 09:43:27;;;;;;;5.17;4.67;;;21.20;99.90;;;;;;5039212;28;20981;-78
2021/09/26 09:45:57;;;;;;;3.93;3.63;;;21.00;99.90;;;;;;5041253;28;20428;-78
2021/09/26 09:48:25;;;;;;;3.50;3.30;;;20.90;99.90;;;;;;5039018;28;20442;-78
2021/09/26 09:50:59;;;;;;;3.73;3.43;;;20.80;99.90;;;;;;5038986;28;20459;-78
2021/09/26 09:53:24;;;;;;;4.20;3.90;;;20.80;99.90;;;;;;5046884;28;20429;-78
2021/09/26 09:56:07;;;;;;;5.43;3.27;;;20.90;99.90;;;;;;5044924;28;20417;-78
2021/09/26 09:58:43;;;;;;;5.20;3.90;;;21.00;99.90;;;;;;5042651;28;20205;-79
2021/09/26 10:01:31;;;;;;;4.10;3.70;;;21.20;99.90;;;;;;5042810;28;20485;-78
2021/09/26 10:03:59;;;;;;;4.00;3.70;;;21.30;99.90;;;;;;5034689;28;20431;-77
2021/09/26 10:06:28;;;;;;;4.60;3.73;;;21.40;99.90;;;;;;5042992;28;20430;-78
2021/09/26 10:09:05;;;;;;;3.73;3.53;;;21.60;99.90;;;;;;5043627;28;20419;-78
2021/09/26 10:11:31;;;;;;;4.47;4.07;;;21.80;99.90;;;;;;5044439;28;20458;-78
2021/09/26 10:13:57;;;;;;;4.60;3.90;;;21.90;99.90;;;;;;5043237;28;20444;-78
2021/09/26 10:16:23;;;;;;;3.80;3.50;;;21.90;99.90;;;;;;5043985;28;20551;-78
2021/09/26 10:18:49;;;;;;;4.20;4.00;;;21.90;99.90;;;;;;5045073;28;20530;-78
2021/09/26 10:21:16;;;;;;;4.87;4.47;;;22.00;99.90;;;;;;5044262;28;20573;-78
2021/09/26 10:23:47;;;;;;;4.43;4.03;;;22.10;99.90;;;;;;5043120;28;20485;-78
2021/09/26 10:26:15;;;;;;;4.10;3.90;;;22.10;99.90;;;;;;5044569;28;20806;-78
2021/09/26 10:28:42;;;;;;;5.93;4.10;;;22.10;99.90;;;;;;5042294;28;20501;-78
2021/09/26 10:31:08;;;;;;;3.53;3.33;;;22.00;99.90;;;;;;5042074;28;20435;-77
2021/09/26 10:33:34;;;;;;;4.37;4.07;;;21.90;99.90;;;;;;5043169;28;20433;-78
2021/09/26 10:36:01;;;;;;;4.10;3.80;;;21.80;99.90;;;;;;5043405;28;20542;-78
2021/09/26 10:38:28;;;;;;;5.00;3.80;;;21.60;99.90;;;;;;5043391;28;20197;-78
2021/09/26 10:41:02;;;;;;;4.60;4.20;;;21.50;99.90;;;;;;5042215;28;20436;-78
2021/09/26 10:43:29;;;;;;;4.70;4.30;;;21.50;99.90;;;;;;5041525;28;20474;-78
2021/09/26 10:46:23;;;;;;;5.13;4.20;;;21.50;99.90;;;;;;5043604;28;20423;-75
2021/09/26 10:49:09;;;;;;;5.07;4.67;;;21.50;99.90;;;;;;5042854;28;20746;-75
2021/09/26 10:52:02;;;;;;;4.80;3.90;;;21.60;99.90;;;;;;5040715;28;20423;-75
2021/09/26 10:54:36;;;;;;;6.50;4.50;;;21.80;99.90;;;;;;5040453;28;20439;-75
2021/09/26 10:57:04;;;;;;;5.07;4.67;;;21.90;99.90;;;;;;5043242;28;20991;-75
2021/09/26 10:59:42;;;;;;;4.40;4.10;;;22.00;99.90;;;;;;5040930;28;20459;-75
2021/09/26 11:02:23;;;;;;;4.90;4.50;;;22.10;99.90;;;;;;5041903;28;20465;-72
2021/09/26 11:04:51;;;;;;;5.17;4.77;;;22.10;99.90;;;;;;5042625;28;20500;-73
2021/09/26 11:07:31;;;;;;;4.47;4.17;;;22.10;99.90;;;;;;5041113;28;20449;-72
2021/09/26 11:10:06;;;;;;;4.50;4.20;;;22.10;99.90;;;;;;5041360;28;20921;-73
2021/09/26 11:12:40;;;;;;;4.63;4.20;;;22.10;99.90;;;;;;5043370;28;20427;-72
2021/09/26 11:15:15;;;;;;;4.93;4.63;;;22.10;99.90;;;;;;5041430;28;21293;-72
2021/09/26 11:17:43;;;;;;;4.80;4.50;;;22.10;99.90;;;;;;5042196;28;20454;-73
2021/09/26 11:20:10;;;;;;;4.67;4.37;;;22.10;99.90;;;;;;5043206;28;20925;-73
2021/09/26 11:22:36;;;;;;;5.40;5.10;;;22.20;99.90;;;;;;5043944;28;20486;-73
2021/09/26 11:25:03;;;;;;;4.87;4.57;;;22.20;99.90;;;;;;5042198;28;20455;-74
2021/09/26 11:27:37;;;;;;;5.23;4.77;;;22.20;99.90;;;;;;5043182;28;20867;-73
2021/09/26 11:30:07;;;;;;;5.90;4.90;;;22.30;99.90;;;;;;5042414;28;20428;-73
2021/09/26 11:32:33;;;;;;;6.30;5.63;;;22.30;99.90;;;;;;5044149;28;20436;-73
2021/09/26 11:35:24;;;;;;;5.27;4.87;;;22.50;99.90;;;;;;5042865;28;20491;-73
2021/09/26 11:37:53;;;;;;;6.73;4.57;;;23.00;99.90;;;;;;5037992;28;20821;-73
2021/09/26 11:40:26;;;;;;;4.50;4.17;;;23.40;99.90;;;;;;5044173;28;20444;-73
2021/09/26 11:42:52;;;;;;;5.03;4.63;;;23.70;99.90;;;;;;5042147;28;20448;-73
2021/09/26 11:45:21;;;;;;;6.43;4.00;;;23.80;99.90;;;;;;5043266;28;20751;-73
2021/09/26 11:48:03;;;;;;;4.40;4.17;;;24.00;99.90;;;;;;5043217;28;20443;-73
2021/09/26 11:50:33;;;;;;;4.00;3.80;;;24.20;99.90;;;;;;5043042;28;20423;-73
2021/09/26 11:52:59;;;;;;;4.57;4.30;;;24.40;99.90;;;;;;5042630;28;20432;-74
2021/09/26 11:55:30;;;;;;;4.57;4.23;;;24.60;99.90;;;;;;5042641;28;20442;-74
2021/09/26 11:57:58;;;;;;;4.50;4.20;;;24.80;99.90;;;;;;5043863;28;21064;-74
2021/09/26 12:00:26;;;;;;;4.80;4.40;;;25.00;99.90;;;;;;5043590;28;20415;-74
2021/09/26 12:02:52;;;;;;;5.10;4.73;;;25.10;99.90;;;;;;5043238;28;20432;-74
2021/09/26 12:05:38;;;;;;;4.50;4.23;;;25.10;99.90;;;;;;5042762;28;20423;-74
2021/09/26 12:08:05;;;;;;;4.43;4.13;;;25.10;99.90;;;;;;5042780;28;20188;-74
2021/09/26 12:10:32;;;;;;;4.40;4.10;;;25.00;99.90;;;;;;5043769;28;20452;-74
2021/09/26 12:12:58;;;;;;;5.90;4.47;;;24.80;99.90;;;;;;5042937;28;20921;-74
2021/09/26 12:15:26;;;;;;;4.40;4.10;;;24.70;99.90;;;;;;5041200;28;20452;-73
2021/09/26 12:17:56;;;;;;;5.30;4.77;;;24.70;99.90;;;;;;5042729;28;20166;-74
2021/09/26 12:20:24;;;;;;;3.97;3.67;;;24.60;99.90;;;;;;5042055;28;20438;-73
2021/09/26 12:22:56;;;;;;;4.77;4.37;;;24.50;99.90;;;;;;5041932;28;20435;-73
2021/09/26 12:25:33;;;;;;;4.83;4.47;;;24.30;99.90;;;;;;5041989;28;20430;-74
2021/09/26 12:28:09;;;;;;;4.07;3.77;;;24.20;99.90;;;;;;5042957;28;20438;-73
2021/09/26 12:30:40;;;;;;;4.70;4.40;;;24.00;99.90;;;;;;5042584;28;20419;-73
2021/09/26 12:33:08;;;;;;;4.83;4.30;;;24.00;99.90;;;;;;5042238;28;20431;-73
2021/09/26 12:35:41;;;;;;;5.70;4.43;;;23.90;99.90;;;;;;5042393;28;20447;-74
2021/09/26 12:38:21;;;;;;;3.93;3.73;;;23.90;99.90;;;;;;5042174;28;20775;-74
2021/09/26 12:41:19;;;;;;;5.00;4.60;;;23.80;99.90;;;;;;5041522;28;20504;-73
2021/09/26 12:43:49;;;;;;;4.60;4.30;;;23.80;99.90;;;;;;5032375;28;20452;-74
2021/09/26 12:46:18;;;;;;;4.77;4.37;;;23.60;99.90;;;;;;5050337;28;20427;-75
2021/09/26 12:48:46;;;;;;;5.40;5.10;;;23.50;99.90;;;;;;5060210;28;20471;-75
2021/09/26 12:51:20;;;;;;;5.03;4.30;;;23.40;99.90;;;;;;5061559;28;20436;-75